AXM5143 WBGR-WBGG
Flight info
| Callsign | AXM5143 |
|---|---|
| Flight time | 0h 45m |
| Altitude | 30000 |
| Route | BIPAS1A BIPAS DCT SARVO G580 PILAX |
| Aircraft | A320/M-SDE3FGHIRWY/LB1 |
Departure
| Time | 2026-04-30 02:35 |
|---|---|
| Airport | Miri Airport (WBGR) |
Arrival
| Time | 2026-04-30 03:20 |
|---|---|
| Airport | Kuching International Airport (WBGG) |
| Time | Latitude | Longitude | Altitude | Speed | Heading |
|---|---|---|---|---|---|
| 2026-04-30 01:59 | 4.32478 | 113.98421 | 63 ft | 0 kts | 295° |
| 2026-04-30 02:17 | 4.32470 | 113.98439 | 57 ft | 4 kts | 295° |
| 2026-04-30 02:17 | 4.32458 | 113.98464 | 56 ft | 4 kts | 295° |
| 2026-04-30 02:17 | 4.32449 | 113.98484 | 54 ft | 4 kts | 282° |
| 2026-04-30 02:18 | 4.32451 | 113.98508 | 54 ft | 4 kts | 233° |
| 2026-04-30 02:18 | 4.32470 | 113.98525 | 55 ft | 3 kts | 208° |
| 2026-04-30 02:18 | 4.32473 | 113.98526 | 55 ft | 0 kts | 207° |
| 2026-04-30 02:21 | 4.32469 | 113.98524 | 55 ft | 3 kts | 207° |
| 2026-04-30 02:21 | 4.32439 | 113.98509 | 59 ft | 7 kts | 207° |
| 2026-04-30 02:22 | 4.32390 | 113.98483 | 56 ft | 0 kts | 207° |
| 2026-04-30 02:22 | 4.32387 | 113.98482 | 57 ft | 2 kts | 200° |
| 2026-04-30 02:22 | 4.32364 | 113.98474 | 61 ft | 5 kts | 200° |
| 2026-04-30 02:22 | 4.32319 | 113.98454 | 59 ft | 9 kts | 203° |
| 2026-04-30 02:23 | 4.32248 | 113.98437 | 56 ft | 12 kts | 161° |
| 2026-04-30 02:23 | 4.32188 | 113.98479 | 66 ft | 11 kts | 185° |
| 2026-04-30 02:23 | 4.32100 | 113.98446 | 64 ft | 16 kts | 205° |
| 2026-04-30 02:23 | 4.32004 | 113.98401 | 67 ft | 13 kts | 204° |
| 2026-04-30 02:24 | 4.31940 | 113.98373 | 66 ft | 10 kts | 202° |
| 2026-04-30 02:24 | 4.31870 | 113.98342 | 66 ft | 13 kts | 205° |
| 2026-04-30 02:24 | 4.31784 | 113.98301 | 67 ft | 17 kts | 205° |
| 2026-04-30 02:24 | 4.31709 | 113.98266 | 67 ft | 13 kts | 206° |
| 2026-04-30 02:25 | 4.31615 | 113.98221 | 70 ft | 17 kts | 205° |
| 2026-04-30 02:25 | 4.31496 | 113.98166 | 71 ft | 21 kts | 203° |
| 2026-04-30 02:25 | 4.31346 | 113.98095 | 65 ft | 26 kts | 205° |
| 2026-04-30 02:25 | 4.31229 | 113.98070 | 61 ft | 15 kts | 152° |
| 2026-04-30 02:26 | 4.31204 | 113.98098 | 66 ft | 0 kts | 118° |
| 2026-04-30 02:33 | 4.31202 | 113.98103 | 66 ft | 3 kts | 118° |
| 2026-04-30 02:33 | 4.31185 | 113.98149 | 62 ft | 11 kts | 95° |
| 2026-04-30 02:33 | 4.31163 | 113.98214 | 69 ft | 10 kts | 181° |
| 2026-04-30 02:34 | 4.31158 | 113.98198 | 62 ft | 2 kts | 1° |
| 2026-04-30 02:34 | 4.31179 | 113.98212 | 64 ft | 3 kts | 25° |
| 2026-04-30 02:34 | 4.31231 | 113.98236 | 66 ft | 24 kts | 24° |
| 2026-04-30 02:34 | 4.31629 | 113.98418 | 65 ft | 100 kts | 25° |
| 2026-04-30 02:35 | 4.32461 | 113.98807 | 71 ft | 163 kts | 23° |
| 2026-04-30 02:35 | 4.33534 | 113.99252 | 778 ft | 172 kts | 24° |
| 2026-04-30 02:35 | 4.34606 | 113.99730 | 1475 ft | 166 kts | 26° |
| 2026-04-30 02:35 | 4.35341 | 113.99996 | 1923 ft | 169 kts | 7° |
| 2026-04-30 02:36 | 4.36631 | 113.99818 | 2254 ft | 215 kts | 333° |
| 2026-04-30 02:36 | 4.37809 | 113.98341 | 3927 ft | 203 kts | 281° |
| 2026-04-30 02:36 | 4.37797 | 113.97374 | 4443 ft | 217 kts | 251° |
| 2026-04-30 02:36 | 4.36884 | 113.96188 | 5340 ft | 225 kts | 214° |
| 2026-04-30 02:37 | 4.35547 | 113.95191 | 6025 ft | 252 kts | 217° |
| 2026-04-30 02:37 | 4.34131 | 113.94015 | 6748 ft | 277 kts | 219° |
| 2026-04-30 02:37 | 4.32631 | 113.92677 | 7459 ft | 301 kts | 221° |
| 2026-04-30 02:37 | 4.31038 | 113.91196 | 8187 ft | 325 kts | 222° |
| 2026-04-30 02:38 | 4.29340 | 113.89583 | 8951 ft | 347 kts | 223° |
| 2026-04-30 02:38 | 4.27559 | 113.87869 | 9711 ft | 363 kts | 223° |
| 2026-04-30 02:38 | 4.25707 | 113.86085 | 10419 ft | 374 kts | 223° |
| 2026-04-30 02:38 | 4.23805 | 113.84257 | 11116 ft | 383 kts | 223° |
| 2026-04-30 02:39 | 4.21858 | 113.82394 | 11839 ft | 391 kts | 222° |
| 2026-04-30 02:39 | 4.19866 | 113.80492 | 12580 ft | 399 kts | 222° |
| 2026-04-30 02:39 | 4.17966 | 113.78425 | 13336 ft | 407 kts | 230° |
| 2026-04-30 02:39 | 4.16152 | 113.76212 | 14062 ft | 414 kts | 229° |
| 2026-04-30 02:40 | 4.14313 | 113.73977 | 14739 ft | 418 kts | 229° |
| 2026-04-30 02:40 | 4.12454 | 113.71720 | 15445 ft | 421 kts | 229° |
| 2026-04-30 02:40 | 4.10592 | 113.69461 | 16158 ft | 421 kts | 229° |
| 2026-04-30 02:40 | 4.08724 | 113.67194 | 16880 ft | 421 kts | 229° |
| 2026-04-30 02:41 | 4.06863 | 113.64930 | 17639 ft | 420 kts | 229° |
| 2026-04-30 02:41 | 4.05009 | 113.62678 | 18375 ft | 419 kts | 229° |
| 2026-04-30 02:41 | 4.03157 | 113.60432 | 19041 ft | 417 kts | 229° |
| 2026-04-30 02:41 | 4.01312 | 113.58192 | 19717 ft | 415 kts | 229° |
| 2026-04-30 02:42 | 3.99479 | 113.55967 | 20413 ft | 413 kts | 229° |
| 2026-04-30 02:42 | 3.97661 | 113.53758 | 21127 ft | 410 kts | 229° |
| 2026-04-30 02:42 | 3.95851 | 113.51560 | 21849 ft | 407 kts | 229° |
| 2026-04-30 02:42 | 3.94054 | 113.49377 | 22604 ft | 404 kts | 229° |
| 2026-04-30 02:43 | 3.92275 | 113.47215 | 23373 ft | 400 kts | 229° |
| 2026-04-30 02:43 | 3.90523 | 113.45073 | 24039 ft | 396 kts | 230° |
| 2026-04-30 02:43 | 3.88856 | 113.42940 | 24680 ft | 391 kts | 231° |
| 2026-04-30 02:43 | 3.87215 | 113.40758 | 25361 ft | 384 kts | 232° |
| 2026-04-30 02:44 | 3.85662 | 113.38657 | 26047 ft | 375 kts | 232° |
| 2026-04-30 02:44 | 3.84113 | 113.36556 | 26747 ft | 365 kts | 232° |
| 2026-04-30 02:44 | 3.82622 | 113.34546 | 27472 ft | 354 kts | 231° |
| 2026-04-30 02:44 | 3.81183 | 113.32621 | 28093 ft | 348 kts | 231° |
| 2026-04-30 02:45 | 3.79721 | 113.30678 | 28384 ft | 350 kts | 231° |
| 2026-04-30 02:45 | 3.78246 | 113.28729 | 28689 ft | 352 kts | 231° |
| 2026-04-30 02:45 | 3.76756 | 113.26764 | 28999 ft | 355 kts | 231° |
| 2026-04-30 02:45 | 3.75264 | 113.24792 | 29305 ft | 356 kts | 231° |
| 2026-04-30 02:46 | 3.73765 | 113.22806 | 29605 ft | 358 kts | 231° |
| 2026-04-30 02:46 | 3.72257 | 113.20807 | 29901 ft | 361 kts | 231° |
| 2026-04-30 02:46 | 3.70728 | 113.18779 | 29998 ft | 369 kts | 231° |
| 2026-04-30 02:46 | 3.69157 | 113.16696 | 30016 ft | 380 kts | 231° |
| 2026-04-30 02:47 | 3.67538 | 113.14553 | 30018 ft | 391 kts | 231° |
| 2026-04-30 02:47 | 3.65872 | 113.12350 | 30018 ft | 402 kts | 231° |
| 2026-04-30 02:47 | 3.64160 | 113.10088 | 30019 ft | 413 kts | 231° |
| 2026-04-30 02:48 | 3.60634 | 113.05428 | 30017 ft | 433 kts | 231° |
| 2026-04-30 02:48 | 3.56922 | 113.00517 | 30019 ft | 452 kts | 231° |
| 2026-04-30 02:49 | 3.53058 | 112.95401 | 30018 ft | 469 kts | 231° |
| 2026-04-30 02:49 | 3.49065 | 112.90107 | 30022 ft | 483 kts | 231° |
| 2026-04-30 02:50 | 3.44954 | 112.84671 | 30018 ft | 496 kts | 231° |
| 2026-04-30 02:50 | 3.40848 | 112.79011 | 30024 ft | 508 kts | 234° |
| 2026-04-30 02:51 | 3.36890 | 112.73130 | 30017 ft | 518 kts | 235° |
| 2026-04-30 02:51 | 3.32866 | 112.67095 | 30348 ft | 519 kts | 235° |
| 2026-04-30 02:51 | 3.30873 | 112.64112 | 30819 ft | 512 kts | 235° |
| 2026-04-30 02:52 | 3.28890 | 112.61161 | 31230 ft | 507 kts | 234° |
| 2026-04-30 02:52 | 3.26897 | 112.58275 | 31723 ft | 500 kts | 234° |
| 2026-04-30 02:52 | 3.24915 | 112.55446 | 32221 ft | 494 kts | 233° |
| 2026-04-30 02:52 | 3.22954 | 112.52649 | 32734 ft | 487 kts | 234° |
| 2026-04-30 02:53 | 3.21025 | 112.49875 | 33009 ft | 488 kts | 234° |
| 2026-04-30 02:53 | 3.19076 | 112.47050 | 32805 ft | 499 kts | 234° |
| 2026-04-30 02:53 | 3.17096 | 112.44161 | 32601 ft | 508 kts | 234° |
| 2026-04-30 02:53 | 3.15079 | 112.41211 | 32412 ft | 518 kts | 234° |
| 2026-04-30 02:54 | 3.13108 | 112.38325 | 32409 ft | 521 kts | 235° |
| 2026-04-30 02:54 | 3.11088 | 112.35345 | 31968 ft | 512 kts | 234° |
| 2026-04-30 02:54 | 3.09144 | 112.32441 | 31800 ft | 493 kts | 234° |
| 2026-04-30 02:54 | 3.07219 | 112.29619 | 31636 ft | 489 kts | 234° |
| 2026-04-30 02:55 | 3.05285 | 112.26826 | 31489 ft | 486 kts | 233° |
| 2026-04-30 02:55 | 3.03356 | 112.24059 | 31327 ft | 484 kts | 233° |
| 2026-04-30 02:55 | 3.01434 | 112.21300 | 31157 ft | 486 kts | 233° |
| 2026-04-30 02:55 | 2.99511 | 112.18527 | 31028 ft | 495 kts | 234° |
| 2026-04-30 02:56 | 2.97535 | 112.15664 | 30907 ft | 504 kts | 234° |
| 2026-04-30 02:56 | 2.95536 | 112.12752 | 30803 ft | 512 kts | 234° |
| 2026-04-30 02:56 | 2.93504 | 112.09782 | 30687 ft | 520 kts | 234° |
| 2026-04-30 02:56 | 2.91458 | 112.06783 | 30823 ft | 520 kts | 234° |
| 2026-04-30 02:57 | 2.89435 | 112.03814 | 31332 ft | 513 kts | 234° |
| 2026-04-30 02:57 | 2.85379 | 111.97905 | 31716 ft | 514 kts | 234° |
| 2026-04-30 02:58 | 2.81255 | 111.92058 | 32189 ft | 512 kts | 232° |
| 2026-04-30 02:58 | 2.79118 | 111.89224 | 32431 ft | 509 kts | 230° |
| 2026-04-30 02:58 | 2.76788 | 111.86658 | 32613 ft | 484 kts | 221° |
| 2026-04-30 02:58 | 2.74288 | 111.84443 | 31911 ft | 475 kts | 219° |
| 2026-04-30 02:59 | 2.71864 | 111.82314 | 31193 ft | 452 kts | 219° |
| 2026-04-30 02:59 | 2.69564 | 111.80271 | 30582 ft | 437 kts | 219° |
| 2026-04-30 02:59 | 2.67329 | 111.78264 | 30051 ft | 425 kts | 219° |
| 2026-04-30 02:59 | 2.65151 | 111.76295 | 29458 ft | 426 kts | 220° |
| 2026-04-30 03:00 | 2.62942 | 111.74261 | 28900 ft | 433 kts | 221° |
| 2026-04-30 03:00 | 2.60824 | 111.72126 | 28107 ft | 429 kts | 225° |
| 2026-04-30 03:00 | 2.58880 | 111.69980 | 27844 ft | 416 kts | 226° |
| 2026-04-30 03:00 | 2.57003 | 111.67812 | 27598 ft | 409 kts | 227° |
| 2026-04-30 03:01 | 2.55163 | 111.65662 | 27350 ft | 405 kts | 227° |
| 2026-04-30 03:01 | 2.53325 | 111.63532 | 27106 ft | 403 kts | 227° |
| 2026-04-30 03:01 | 2.51483 | 111.61431 | 26865 ft | 401 kts | 226° |
| 2026-04-30 03:01 | 2.49630 | 111.59348 | 26623 ft | 399 kts | 226° |
| 2026-04-30 03:02 | 2.47776 | 111.57286 | 26382 ft | 398 kts | 226° |
| 2026-04-30 03:02 | 2.45921 | 111.55234 | 26151 ft | 397 kts | 226° |
| 2026-04-30 03:02 | 2.44073 | 111.53190 | 25924 ft | 396 kts | 226° |
| 2026-04-30 03:02 | 2.42237 | 111.51151 | 25682 ft | 392 kts | 226° |
| 2026-04-30 03:03 | 2.40418 | 111.49128 | 25256 ft | 390 kts | 226° |
| 2026-04-30 03:03 | 2.36818 | 111.45121 | 24300 ft | 390 kts | 226° |
| 2026-04-30 03:03 | 2.35001 | 111.43093 | 23810 ft | 391 kts | 226° |
| 2026-04-30 03:04 | 2.33188 | 111.41069 | 23272 ft | 391 kts | 226° |
| 2026-04-30 03:04 | 2.31375 | 111.39047 | 22782 ft | 389 kts | 226° |
| 2026-04-30 03:04 | 2.29546 | 111.37055 | 22302 ft | 387 kts | 225° |
| 2026-04-30 03:04 | 2.27697 | 111.35098 | 21834 ft | 386 kts | 225° |
| 2026-04-30 03:05 | 2.25848 | 111.33168 | 21366 ft | 384 kts | 224° |
| 2026-04-30 03:05 | 2.23999 | 111.31248 | 20908 ft | 383 kts | 224° |
| 2026-04-30 03:05 | 2.22153 | 111.29331 | 20442 ft | 382 kts | 224° |
| 2026-04-30 03:05 | 2.20317 | 111.27415 | 19998 ft | 381 kts | 225° |
| 2026-04-30 03:06 | 2.18492 | 111.25502 | 19536 ft | 380 kts | 225° |
| 2026-04-30 03:06 | 2.16671 | 111.23587 | 19090 ft | 379 kts | 225° |
| 2026-04-30 03:06 | 2.14859 | 111.21673 | 18645 ft | 379 kts | 225° |
| 2026-04-30 03:06 | 2.13057 | 111.19769 | 18226 ft | 377 kts | 225° |
| 2026-04-30 03:07 | 2.11263 | 111.17876 | 17866 ft | 372 kts | 225° |
| 2026-04-30 03:07 | 2.09472 | 111.15992 | 17393 ft | 371 kts | 225° |
| 2026-04-30 03:07 | 2.07708 | 111.14138 | 17039 ft | 366 kts | 225° |
| 2026-04-30 03:07 | 2.05949 | 111.12290 | 16589 ft | 365 kts | 225° |
| 2026-04-30 03:08 | 2.04204 | 111.10455 | 16185 ft | 363 kts | 225° |
| 2026-04-30 03:08 | 2.02471 | 111.08630 | 15798 ft | 361 kts | 225° |
| 2026-04-30 03:08 | 2.00747 | 111.06816 | 15425 ft | 358 kts | 225° |
| 2026-04-30 03:08 | 1.99035 | 111.05016 | 15049 ft | 356 kts | 225° |
| 2026-04-30 03:09 | 1.97354 | 111.03248 | 14693 ft | 354 kts | 225° |
| 2026-04-30 03:09 | 1.95663 | 111.01469 | 14328 ft | 352 kts | 225° |
| 2026-04-30 03:09 | 1.93982 | 110.99703 | 13971 ft | 350 kts | 225° |
| 2026-04-30 03:09 | 1.92311 | 110.97947 | 13602 ft | 347 kts | 225° |
| 2026-04-30 03:10 | 1.90652 | 110.96198 | 13190 ft | 345 kts | 225° |
| 2026-04-30 03:10 | 1.89002 | 110.94458 | 12798 ft | 344 kts | 225° |
| 2026-04-30 03:10 | 1.87363 | 110.92727 | 12400 ft | 342 kts | 225° |
| 2026-04-30 03:10 | 1.85729 | 110.91007 | 12005 ft | 340 kts | 225° |
| 2026-04-30 03:11 | 1.84105 | 110.89301 | 11622 ft | 338 kts | 225° |
| 2026-04-30 03:11 | 1.82489 | 110.87607 | 11234 ft | 336 kts | 225° |
| 2026-04-30 03:11 | 1.80880 | 110.85918 | 10854 ft | 334 kts | 225° |
| 2026-04-30 03:11 | 1.79281 | 110.84239 | 10487 ft | 332 kts | 225° |
| 2026-04-30 03:12 | 1.77696 | 110.82572 | 10135 ft | 330 kts | 225° |
| 2026-04-30 03:12 | 1.76124 | 110.80916 | 9820 ft | 325 kts | 225° |
| 2026-04-30 03:12 | 1.74593 | 110.79304 | 9688 ft | 315 kts | 225° |
| 2026-04-30 03:12 | 1.73099 | 110.77732 | 9404 ft | 309 kts | 225° |
| 2026-04-30 03:13 | 1.71624 | 110.76180 | 9053 ft | 307 kts | 225° |
| 2026-04-30 03:13 | 1.70156 | 110.74636 | 8688 ft | 305 kts | 225° |
| 2026-04-30 03:13 | 1.68698 | 110.73104 | 8324 ft | 303 kts | 225° |
| 2026-04-30 03:13 | 1.67250 | 110.71581 | 7955 ft | 301 kts | 225° |
| 2026-04-30 03:14 | 1.65809 | 110.70067 | 7512 ft | 302 kts | 226° |
| 2026-04-30 03:14 | 1.64328 | 110.68511 | 6739 ft | 315 kts | 226° |
| 2026-04-30 03:14 | 1.62790 | 110.66895 | 5938 ft | 327 kts | 226° |
| 2026-04-30 03:14 | 1.61199 | 110.65223 | 5090 ft | 337 kts | 226° |
| 2026-04-30 03:15 | 1.59765 | 110.63360 | 4447 ft | 338 kts | 244° |
| 2026-04-30 03:15 | 1.58907 | 110.61257 | 4286 ft | 324 kts | 249° |
| 2026-04-30 03:15 | 1.58115 | 110.59217 | 4297 ft | 302 kts | 249° |
| 2026-04-30 03:15 | 1.57386 | 110.57346 | 4449 ft | 276 kts | 249° |
| 2026-04-30 03:16 | 1.56717 | 110.55631 | 4711 ft | 248 kts | 249° |
| 2026-04-30 03:16 | 1.56149 | 110.54055 | 4573 ft | 240 kts | 251° |
| 2026-04-30 03:16 | 1.55560 | 110.52471 | 3958 ft | 250 kts | 249° |
| 2026-04-30 03:16 | 1.54937 | 110.50897 | 3669 ft | 231 kts | 249° |
| 2026-04-30 03:17 | 1.54382 | 110.49505 | 3521 ft | 203 kts | 250° |
| 2026-04-30 03:17 | 1.53877 | 110.48235 | 3232 ft | 191 kts | 250° |
| 2026-04-30 03:17 | 1.53397 | 110.47026 | 2773 ft | 189 kts | 249° |
| 2026-04-30 03:17 | 1.52901 | 110.45774 | 2167 ft | 195 kts | 250° |
| 2026-04-30 03:18 | 1.52574 | 110.44953 | 2042 ft | 179 kts | 249° |
| 2026-04-30 03:18 | 1.51991 | 110.43482 | 1793 ft | 171 kts | 249° |
| 2026-04-30 03:18 | 1.51700 | 110.42727 | 1363 ft | 175 kts | 250° |
| 2026-04-30 03:18 | 1.51250 | 110.41587 | 970 ft | 170 kts | 249° |
| 2026-04-30 03:19 | 1.50817 | 110.40518 | 805 ft | 163 kts | 249° |
| 2026-04-30 03:19 | 1.50399 | 110.39474 | 630 ft | 160 kts | 249° |
| 2026-04-30 03:19 | 1.49992 | 110.38452 | 427 ft | 157 kts | 248° |
| 2026-04-30 03:19 | 1.49589 | 110.37440 | 208 ft | 156 kts | 248° |
| 2026-04-30 03:20 | 1.49191 | 110.36455 | 56 ft | 153 kts | 247° |
| 2026-04-30 03:20 | 1.48817 | 110.35534 | 74 ft | 118 kts | 248° |
| 2026-04-30 03:20 | 1.48671 | 110.35117 | 73 ft | 31 kts | 257° |
| 2026-04-30 03:20 | 1.48615 | 110.34922 | 72 ft | 31 kts | 255° |
| 2026-04-30 03:21 | 1.48603 | 110.34797 | 72 ft | 14 kts | 274° |
| 2026-04-30 03:21 | 1.48617 | 110.34725 | 73 ft | 0 kts | 279° |
| 2026-04-30 03:26 | 1.48618 | 110.34721 | 67 ft | 1 kts | 279° |
| 2026-04-30 03:26 | 1.48619 | 110.34716 | 70 ft | 0 kts | 278° |
| 2026-04-30 03:27 | 1.48593 | 110.34733 | 80 ft | 0 kts | 3° |
| 2026-04-30 03:27 | 1.48592 | 110.34731 | 75 ft | 0 kts | 320° |
| 2026-04-30 03:28 | 1.48592 | 110.34732 | 73 ft | 0 kts | 335° |
| 2026-04-30 03:34 | 1.48658 | 110.34237 | 75 ft | 0 kts | 338° |
| 2026-04-30 03:41 | 1.48678 | 110.34278 | 79 ft | 0 kts | 343° |
| 2026-04-30 03:42 | 1.48668 | 110.34288 | 79 ft | 0 kts | 33° |
| 2026-04-30 03:42 | 1.48725 | 110.34354 | 79 ft | 373 kts | 145° |